Time;durP1;ratioP1;P1;durP2;ratioP2;P2;SDS_P1;SDS_P2;PMS_P1;PMS_P2;Temp;Humidity;BMP_temperature;BMP_pressure;BME280_temperature;BME280_humidity;BME280_pressure;Samples;Min_cycle;Max_cycle;Signal;HPM_P1;HPM_P2
2023/01/02 00:01:38;;;;;;;5.70;3.73;;;;;;;;;;5014453;28;20278;-51
2023/01/02 00:04:04;;;;;;;4.67;3.40;;;;;;;;;;5014803;28;20774;-51
2023/01/02 00:06:33;;;;;;;5.93;4.00;;;;;;;;;;5014501;28;20729;-52
2023/01/02 00:08:59;;;;;;;6.83;3.53;;;;;;;;;;5014496;28;20204;-51
2023/01/02 00:11:25;;;;;;;4.80;3.27;;;;;;;;;;5014590;28;20228;-51
2023/01/02 00:13:51;;;;;;;6.50;3.97;;;;;;;;;;5014613;28;20221;-50
2023/01/02 00:16:18;;;;;;;6.80;3.53;;;;;;;;;;5014328;28;20665;-49
2023/01/02 00:18:44;;;;;;;6.17;3.73;;;;;;;;;;5014804;28;20209;-49
2023/01/02 00:21:10;;;;;;;8.17;4.57;;;;;;;;;;5014171;28;20232;-49
2023/01/02 00:23:36;;;;;;;8.47;3.97;;;;;;;;;;5014298;28;20217;-50
2023/01/02 00:26:03;;;;;;;8.40;4.40;;;;;;;;;;5014421;28;20202;-49
2023/01/02 00:28:29;;;;;;;7.67;4.23;;;;;;;;;;5014412;28;20225;-50
2023/01/02 00:30:55;;;;;;;8.07;3.87;;;;;;;;;;5014717;28;20313;-49
2023/01/02 00:33:22;;;;;;;11.57;4.40;;;;;;;;;;5013947;28;20268;-50
2023/01/02 00:35:48;;;;;;;8.07;4.20;;;;;;;;;;5014261;28;20317;-50
2023/01/02 00:38:14;;;;;;;5.30;3.63;;;;;;;;;;5014136;28;20276;-50
2023/01/02 00:40:41;;;;;;;7.27;3.90;;;;;;;;;;5013808;28;20606;-50
2023/01/02 00:43:07;;;;;;;9.90;4.27;;;;;;;;;;5014184;28;20201;-51
2023/01/02 00:45:33;;;;;;;6.93;4.27;;;;;;;;;;5013098;28;20198;-52
2023/01/02 00:47:59;;;;;;;18.23;4.27;;;;;;;;;;5013780;28;20673;-50
2023/01/02 00:50:26;;;;;;;8.73;3.73;;;;;;;;;;5013840;28;20202;-49
2023/01/02 00:52:52;;;;;;;9.67;4.10;;;;;;;;;;5013960;28;20218;-49
2023/01/02 00:55:18;;;;;;;10.03;4.23;;;;;;;;;;5013898;28;20611;-50
2023/01/02 00:57:44;;;;;;;9.20;4.00;;;;;;;;;;5013374;28;20210;-49
2023/01/02 01:00:10;;;;;;;9.83;3.93;;;;;;;;;;5013826;28;20201;-49
2023/01/02 01:02:36;;;;;;;7.97;3.80;;;;;;;;;;5013613;28;20244;-49
2023/01/02 01:05:02;;;;;;;7.37;4.23;;;;;;;;;;5013831;28;20575;-49
2023/01/02 01:07:30;;;;;;;9.07;4.30;;;;;;;;;;5013549;28;20205;-49
2023/01/02 01:09:56;;;;;;;8.67;4.70;;;;;;;;;;5013425;28;20573;-50
2023/01/02 01:12:22;;;;;;;5.87;4.07;;;;;;;;;;5013516;28;20194;-49
2023/01/02 01:14:48;;;;;;;8.37;4.20;;;;;;;;;;5013498;28;20193;-49
2023/01/02 01:17:14;;;;;;;7.13;4.20;;;;;;;;;;5013402;28;20244;-49
2023/01/02 01:19:40;;;;;;;8.47;4.17;;;;;;;;;;5013338;28;20826;-49
2023/01/02 01:22:06;;;;;;;7.37;4.37;;;;;;;;;;5012701;28;20221;-49
2023/01/02 01:24:33;;;;;;;6.90;4.53;;;;;;;;;;5013262;28;20198;-49
2023/01/02 01:26:59;;;;;;;10.87;4.47;;;;;;;;;;5013346;28;20288;-49
2023/01/02 01:29:25;;;;;;;8.60;4.10;;;;;;;;;;5011322;28;20663;-48
2023/01/02 01:31:51;;;;;;;7.00;4.37;;;;;;;;;;5011619;28;20193;-48
2023/01/02 01:34:17;;;;;;;7.63;4.17;;;;;;;;;;5012967;28;20249;-48
2023/01/02 01:36:43;;;;;;;10.30;4.30;;;;;;;;;;5012985;28;20276;-48
2023/01/02 01:39:09;;;;;;;8.23;4.10;;;;;;;;;;5012996;28;20657;-48
2023/01/02 01:41:36;;;;;;;11.67;4.27;;;;;;;;;;5012864;28;20693;-46
2023/01/02 01:44:17;;;;;;;7.83;4.57;;;;;;;;;;5013166;28;20211;-48
2023/01/02 01:46:45;;;;;;;9.13;4.20;;;;;;;;;;5012789;28;20268;-46
2023/01/02 01:49:13;;;;;;;7.40;4.03;;;;;;;;;;5013056;28;20201;-46
2023/01/02 01:51:43;;;;;;;10.27;5.00;;;;;;;;;;5012925;28;20200;-47
2023/01/02 01:54:10;;;;;;;12.57;4.67;;;;;;;;;;5012964;28;20205;-48
2023/01/02 01:56:40;;;;;;;4.93;3.67;;;;;;;;;;5012570;28;20664;-47
2023/01/02 01:59:07;;;;;;;9.63;4.30;;;;;;;;;;5011998;28;20202;-47
2023/01/02 02:01:33;;;;;;;8.53;4.30;;;;;;;;;;5012655;28;20233;-49
2023/01/02 02:03:59;;;;;;;7.90;4.60;;;;;;;;;;5012714;28;20197;-48
2023/01/02 02:06:25;;;;;;;8.40;4.40;;;;;;;;;;5012289;28;20691;-48
2023/01/02 02:08:54;;;;;;;6.87;3.97;;;;;;;;;;5012400;28;20237;-49
2023/01/02 02:11:20;;;;;;;7.53;4.37;;;;;;;;;;5012446;28;20202;-48
2023/01/02 02:13:48;;;;;;;7.00;3.93;;;;;;;;;;5012589;28;20213;-48
2023/01/02 02:16:19;;;;;;;8.83;4.67;;;;;;;;;;5012220;28;20252;-49
2023/01/02 02:18:53;;;;;;;8.50;4.07;;;;;;;;;;5012122;28;20292;-49
2023/01/02 02:21:28;;;;;;;12.50;4.50;;;;;;;;;;5011983;28;20225;-49
2023/01/02 02:24:16;;;;;;;9.60;4.23;;;;;;;;;;5012126;28;20284;-48
2023/01/02 02:26:53;;;;;;;9.50;4.17;;;;;;;;;;5012190;28;20208;-48
2023/01/02 02:29:32;;;;;;;6.37;3.87;;;;;;;;;;5011925;28;20336;-48
2023/01/02 02:32:03;;;;;;;8.40;3.73;;;;;;;;;;5012141;28;20620;-49
2023/01/02 02:34:35;;;;;;;8.37;4.83;;;;;;;;;;5012076;28;20225;-49
2023/01/02 02:37:05;;;;;;;8.50;4.13;;;;;;;;;;5012093;28;20224;-49
2023/01/02 02:39:38;;;;;;;7.00;3.97;;;;;;;;;;5011606;28;20201;-49
2023/01/02 02:42:09;;;;;;;7.60;3.97;;;;;;;;;;5011817;28;20696;-49
2023/01/02 02:44:41;;;;;;;8.43;4.00;;;;;;;;;;5011674;28;20209;-50
2023/01/02 02:47:10;;;;;;;8.67;4.00;;;;;;;;;;5011843;28;20201;-49
2023/01/02 02:49:41;;;;;;;8.47;4.00;;;;;;;;;;5011623;28;20571;-49
2023/01/02 02:52:14;;;;;;;7.27;4.37;;;;;;;;;;5011784;28;20679;-50
2023/01/02 02:54:42;;;;;;;6.87;3.60;;;;;;;;;;5011842;28;20276;-49
2023/01/02 02:57:09;;;;;;;7.17;3.77;;;;;;;;;;5011778;28;20660;-50
2023/01/02 02:59:35;;;;;;;7.77;3.70;;;;;;;;;;5011413;28;20197;-51
2023/01/02 03:02:01;;;;;;;6.63;3.83;;;;;;;;;;5011564;28;20327;-50
2023/01/02 03:04:29;;;;;;;10.13;3.77;;;;;;;;;;5011608;28;20235;-48
2023/01/02 03:07:00;;;;;;;7.07;3.07;;;;;;;;;;5011584;28;20288;-49
2023/01/02 03:09:30;;;;;;;6.97;3.63;;;;;;;;;;5012607;28;20245;-49
2023/01/02 03:12:00;;;;;;;5.63;3.10;;;;;;;;;;5015883;28;20195;-49
2023/01/02 03:14:30;;;;;;;10.43;4.13;;;;;;;;;;5015635;28;20205;-50
2023/01/02 03:17:00;;;;;;;7.37;3.80;;;;;;;;;;5015759;28;20335;-49
2023/01/02 03:19:29;;;;;;;11.77;3.93;;;;;;;;;;5015403;28;20206;-49
2023/01/02 03:21:58;;;;;;;5.83;3.23;;;;;;;;;;5015362;28;20469;-48
2023/01/02 03:24:25;;;;;;;9.23;3.67;;;;;;;;;;5015436;28;20216;-48
2023/01/02 03:26:53;;;;;;;8.23;3.23;;;;;;;;;;5015556;28;20282;-48
2023/01/02 03:29:21;;;;;;;10.17;3.73;;;;;;;;;;5015433;28;20209;-48
2023/01/02 03:31:50;;;;;;;6.47;3.93;;;;;;;;;;5015275;28;20205;-48
2023/01/02 03:34:18;;;;;;;8.23;4.23;;;;;;;;;;5015507;28;20224;-55
2023/01/02 03:36:46;;;;;;;9.60;3.70;;;;;;;;;;5015206;28;20204;-47
2023/01/02 03:39:15;;;;;;;7.77;3.43;;;;;;;;;;5015133;28;20303;-47
2023/01/02 03:41:44;;;;;;;6.40;3.50;;;;;;;;;;5015206;28;20513;-47
2023/01/02 03:44:11;;;;;;;5.67;3.67;;;;;;;;;;5015186;28;20613;-48
2023/01/02 03:46:41;;;;;;;10.37;3.63;;;;;;;;;;5014953;28;20186;-48
2023/01/02 03:49:09;;;;;;;7.10;3.10;;;;;;;;;;5015159;28;20602;-47
2023/01/02 03:51:35;;;;;;;7.30;3.60;;;;;;;;;;5015045;28;20207;-47
2023/01/02 03:54:02;;;;;;;6.47;3.90;;;;;;;;;;5014987;28;20201;-47
2023/01/02 03:56:33;;;;;;;5.97;3.20;;;;;;;;;;5014822;28;20300;-47
2023/01/02 03:59:03;;;;;;;7.03;3.57;;;;;;;;;;5014894;28;20259;-47
2023/01/02 04:01:33;;;;;;;8.57;3.17;;;;;;;;;;5014875;28;20214;-47
2023/01/02 04:04:03;;;;;;;5.00;3.33;;;;;;;;;;5014940;28;20672;-47
2023/01/02 04:06:31;;;;;;;7.83;3.33;;;;;;;;;;5014595;28;20205;-47
2023/01/02 04:08:59;;;;;;;7.17;3.10;;;;;;;;;;5014705;28;20252;-47
2023/01/02 04:11:26;;;;;;;10.23;3.73;;;;;;;;;;5014485;28;20190;-47
2023/01/02 04:13:55;;;;;;;7.63;3.30;;;;;;;;;;5014766;28;20205;-47
2023/01/02 04:16:23;;;;;;;7.37;3.80;;;;;;;;;;5014450;28;20564;-47
2023/01/02 04:18:52;;;;;;;7.63;3.60;;;;;;;;;;5014582;28;20198;-47
2023/01/02 04:21:21;;;;;;;8.57;3.23;;;;;;;;;;5013433;28;20228;-47
2023/01/02 04:23:49;;;;;;;6.37;3.57;;;;;;;;;;5014250;28;20208;-47
2023/01/02 04:26:18;;;;;;;8.97;3.90;;;;;;;;;;5014223;28;20205;-47
2023/01/02 04:28:44;;;;;;;6.80;3.73;;;;;;;;;;5014173;28;20560;-48
2023/01/02 04:31:13;;;;;;;8.13;3.50;;;;;;;;;;5014401;28;20565;-48
2023/01/02 04:33:41;;;;;;;8.00;3.57;;;;;;;;;;5014080;28;20206;-48
2023/01/02 04:36:08;;;;;;;7.47;3.53;;;;;;;;;;5014298;28;20206;-47
2023/01/02 04:38:34;;;;;;;8.87;3.50;;;;;;;;;;5014202;28;20232;-47
2023/01/02 04:41:00;;;;;;;8.63;4.07;;;;;;;;;;5013876;28;20268;-47
2023/01/02 04:43:26;;;;;;;9.43;3.83;;;;;;;;;;5014116;28;20197;-47
2023/01/02 04:45:52;;;;;;;8.33;3.70;;;;;;;;;;5013861;28;20264;-47
2023/01/02 04:48:19;;;;;;;7.10;3.50;;;;;;;;;;5013927;28;20198;-47
2023/01/02 04:50:45;;;;;;;8.53;4.03;;;;;;;;;;5014037;28;20202;-47
2023/01/02 04:53:11;;;;;;;6.50;3.63;;;;;;;;;;5013856;28;20276;-47
2023/01/02 04:55:37;;;;;;;11.37;4.20;;;;;;;;;;5013891;28;20755;-47
2023/01/02 04:58:04;;;;;;;7.23;3.57;;;;;;;;;;5014134;28;20204;-47
2023/01/02 05:00:30;;;;;;;8.73;3.50;;;;;;;;;;5013571;28;20224;-47
2023/01/02 05:02:56;;;;;;;7.73;3.47;;;;;;;;;;5013822;28;20194;-47
2023/01/02 05:05:23;;;;;;;8.80;3.73;;;;;;;;;;5013547;28;20207;-47
2023/01/02 05:07:49;;;;;;;10.40;3.53;;;;;;;;;;5013734;28;20217;-47
2023/01/02 05:10:15;;;;;;;7.17;3.67;;;;;;;;;;5013697;28;20269;-48
2023/01/02 05:12:41;;;;;;;7.17;3.40;;;;;;;;;;5013595;28;20679;-48
2023/01/02 05:15:08;;;;;;;9.03;3.40;;;;;;;;;;5013486;28;20228;-48
2023/01/02 05:17:34;;;;;;;7.53;3.50;;;;;;;;;;5013235;28;20256;-48
2023/01/02 05:20:00;;;;;;;5.70;3.03;;;;;;;;;;5013399;28;20197;-48
2023/01/02 05:25:12;;;;;;;7.53;3.13;;;;;;;;;;5013311;28;20200;-48
2023/01/02 05:27:39;;;;;;;5.50;3.20;;;;;;;;;;5013406;28;20571;-48
2023/01/02 05:30:06;;;;;;;8.90;3.63;;;;;;;;;;5013268;28;20201;-48
2023/01/02 05:32:32;;;;;;;6.17;3.20;;;;;;;;;;5012810;28;20193;-48
2023/01/02 05:34:58;;;;;;;6.60;2.87;;;;;;;;;;5013301;28;20589;-48
2023/01/02 05:37:24;;;;;;;9.07;3.53;;;;;;;;;;5012951;28;20252;-49
2023/01/02 05:39:51;;;;;;;8.27;2.80;;;;;;;;;;5013014;28;20255;-48
2023/01/02 05:42:17;;;;;;;5.00;3.20;;;;;;;;;;5013026;28;20233;-48
2023/01/02 05:44:43;;;;;;;6.03;3.07;;;;;;;;;;5012689;28;20198;-48
2023/01/02 05:47:09;;;;;;;6.33;2.90;;;;;;;;;;5012839;28;20210;-48
2023/01/02 05:49:35;;;;;;;10.30;3.17;;;;;;;;;;5012611;28;20324;-48
2023/01/02 05:52:01;;;;;;;7.23;3.33;;;;;;;;;;5012865;28;20694;-47
2023/01/02 05:54:27;;;;;;;9.77;3.13;;;;;;;;;;5012845;28;20189;-48
2023/01/02 05:56:55;;;;;;;7.90;3.20;;;;;;;;;;5012697;28;20210;-48
2023/01/02 05:59:21;;;;;;;4.93;2.97;;;;;;;;;;5012684;28;20202;-48
2023/01/02 06:01:47;;;;;;;11.10;4.10;;;;;;;;;;5012561;28;20778;-48
2023/01/02 06:04:13;;;;;;;9.63;4.63;;;;;;;;;;5012682;28;20193;-48
2023/01/02 06:06:39;;;;;;;6.87;3.50;;;;;;;;;;5012574;28;20228;-48
2023/01/02 06:09:06;;;;;;;8.53;4.30;;;;;;;;;;5009873;28;20197;-48
2023/01/02 06:11:33;;;;;;;14.20;6.97;;;;;;;;;;4992665;28;20233;-49
2023/01/02 06:14:00;;;;;;;16.73;8.30;;;;;;;;;;4992473;28;20633;-49
2023/01/02 06:16:26;;;;;;;8.47;5.67;;;;;;;;;;4992518;28;20209;-47
2023/01/02 06:18:52;;;;;;;9.87;5.60;;;;;;;;;;4992821;28;20206;-48
2023/01/02 06:21:19;;;;;;;8.73;3.87;;;;;;;;;;4992572;28;20218;-48
2023/01/02 06:23:45;;;;;;;6.37;3.40;;;;;;;;;;4992732;28;20213;-48
2023/01/02 06:26:12;;;;;;;8.17;3.63;;;;;;;;;;4992598;28;20209;-47
2023/01/02 06:28:38;;;;;;;8.10;3.20;;;;;;;;;;4992277;28;20261;-48
2023/01/02 06:31:07;;;;;;;5.10;3.33;;;;;;;;;;4992703;28;20209;-48
2023/01/02 06:33:33;;;;;;;8.90;3.37;;;;;;;;;;4992342;28;20206;-48
2023/01/02 06:35:59;;;;;;;9.23;3.33;;;;;;;;;;4992443;28;20222;-48
2023/01/02 06:38:26;;;;;;;8.10;3.47;;;;;;;;;;4992452;28;20256;-48
2023/01/02 06:40:52;;;;;;;9.83;3.63;;;;;;;;;;4992156;28;20240;-48
2023/01/02 06:43:18;;;;;;;6.93;3.30;;;;;;;;;;4992233;28;20662;-48
2023/01/02 06:45:44;;;;;;;6.23;3.50;;;;;;;;;;4991727;28;20580;-48
2023/01/02 06:48:12;;;;;;;6.93;3.40;;;;;;;;;;4992179;28;20209;-48
2023/01/02 06:50:38;;;;;;;6.67;4.07;;;;;;;;;;4992100;28;20672;-48
2023/01/02 06:53:04;;;;;;;9.43;3.60;;;;;;;;;;4992078;28;20213;-48
2023/01/02 06:55:29;;;;;;;8.00;3.43;;;;;;;;;;4992225;28;20264;-49
2023/01/02 06:57:55;;;;;;;5.53;3.33;;;;;;;;;;4992184;28;20277;-49
2023/01/02 07:00:21;;;;;;;6.67;3.53;;;;;;;;;;4991894;28;20249;-49
2023/01/02 07:02:47;;;;;;;6.93;3.40;;;;;;;;;;4992162;28;20594;-49
2023/01/02 07:05:15;;;;;;;5.00;3.10;;;;;;;;;;4992023;28;20202;-49
2023/01/02 07:07:41;;;;;;;7.13;3.70;;;;;;;;;;4991974;28;20209;-49
2023/01/02 07:10:07;;;;;;;9.00;3.43;;;;;;;;;;4992180;28;20200;-49
2023/01/02 07:12:34;;;;;;;8.67;3.73;;;;;;;;;;4991652;28;20202;-49
2023/01/02 07:15:00;;;;;;;8.60;3.20;;;;;;;;;;4991952;28;20205;-49
2023/01/02 07:17:26;;;;;;;8.37;3.47;;;;;;;;;;4991766;28;20614;-49
2023/01/02 07:19:52;;;;;;;9.70;4.10;;;;;;;;;;4991992;28;20233;-49
2023/01/02 07:22:19;;;;;;;7.03;3.40;;;;;;;;;;4991956;28;20283;-49
2023/01/02 07:24:45;;;;;;;6.27;2.90;;;;;;;;;;4991822;28;20209;-49
2023/01/02 07:27:11;;;;;;;6.23;3.07;;;;;;;;;;4991894;28;20206;-49
2023/01/02 07:29:37;;;;;;;9.63;3.03;;;;;;;;;;4991616;28;20194;-49
2023/01/02 07:32:03;;;;;;;11.37;3.67;;;;;;;;;;4991691;28;20252;-49
2023/01/02 07:34:29;;;;;;;5.37;3.07;;;;;;;;;;4991871;28;20284;-50
2023/01/02 07:36:55;;;;;;;4.70;2.73;;;;;;;;;;4991728;28;20712;-50
2023/01/02 07:39:23;;;;;;;10.57;3.13;;;;;;;;;;4991894;28;20229;-49
2023/01/02 07:41:49;;;;;;;8.00;3.03;;;;;;;;;;4991570;28;20238;-48
2023/01/02 07:44:15;;;;;;;7.80;3.30;;;;;;;;;;4991722;28;20611;-50
2023/01/02 07:46:41;;;;;;;6.23;3.27;;;;;;;;;;4991705;28;20203;-49
2023/01/02 07:49:07;;;;;;;7.23;2.93;;;;;;;;;;4991626;28;20244;-50
2023/01/02 07:51:34;;;;;;;6.00;3.67;;;;;;;;;;4991624;28;20619;-49
2023/01/02 07:54:00;;;;;;;6.43;3.40;;;;;;;;;;4991587;28;20202;-50
2023/01/02 07:56:27;;;;;;;3.63;2.57;;;;;;;;;;4994174;28;20202;-50
2023/01/02 07:58:53;;;;;;;6.87;3.10;;;;;;;;;;4995477;28;20202;-49
2023/01/02 08:01:19;;;;;;;5.20;3.00;;;;;;;;;;5000292;28;20287;-49
2023/01/02 08:03:45;;;;;;;4.23;3.00;;;;;;;;;;5014008;28;20213;-49
2023/01/02 08:06:12;;;;;;;10.33;3.27;;;;;;;;;;5014670;28;20660;-49
2023/01/02 08:08:39;;;;;;;5.57;2.80;;;;;;;;;;5014509;28;20233;-49
2023/01/02 08:11:05;;;;;;;5.97;3.40;;;;;;;;;;5014794;28;20204;-49
2023/01/02 08:13:32;;;;;;;5.17;2.70;;;;;;;;;;5014398;28;20208;-49
2023/01/02 08:16:02;;;;;;;5.40;2.80;;;;;;;;;;5014474;28;20664;-49
2023/01/02 08:18:28;;;;;;;3.57;2.30;;;;;;;;;;5014444;28;20240;-49
2023/01/02 08:20:55;;;;;;;7.80;2.50;;;;;;;;;;5014509;28;20208;-48
2023/01/02 08:23:21;;;;;;;6.03;2.53;;;;;;;;;;5014520;28;20198;-49
2023/01/02 08:25:47;;;;;;;4.27;2.57;;;;;;;;;;5014413;28;20210;-49
2023/01/02 08:28:13;;;;;;;4.77;2.30;;;;;;;;;;5014264;28;20231;-49
2023/01/02 08:30:40;;;;;;;5.73;2.40;;;;;;;;;;5014121;28;20197;-49
2023/01/02 08:33:06;;;;;;;5.80;2.67;;;;;;;;;;5014227;28;20221;-49
2023/01/02 08:35:32;;;;;;;5.37;2.23;;;;;;;;;;5014169;28;20628;-49
2023/01/02 08:37:58;;;;;;;6.10;2.83;;;;;;;;;;5014307;28;20734;-49
2023/01/02 08:40:24;;;;;;;5.27;2.50;;;;;;;;;;5013760;28;20332;-48
2023/01/02 08:42:50;;;;;;;4.47;2.13;;;;;;;;;;5014124;28;20230;-49
2023/01/02 08:45:16;;;;;;;6.43;2.60;;;;;;;;;;5013887;28;20202;-49
2023/01/02 08:47:43;;;;;;;4.43;2.43;;;;;;;;;;5013653;28;20255;-49
2023/01/02 08:50:09;;;;;;;5.37;2.50;;;;;;;;;;5013994;28;20281;-48
2023/01/02 08:52:35;;;;;;;3.80;2.33;;;;;;;;;;5013589;28;20252;-47
2023/01/02 08:55:04;;;;;;;3.87;2.33;;;;;;;;;;5013944;28;20329;-48
2023/01/02 08:57:30;;;;;;;5.27;2.53;;;;;;;;;;5013907;28;20244;-50
2023/01/02 08:59:56;;;;;;;4.57;2.60;;;;;;;;;;5013639;28;20220;-48
2023/01/02 09:02:22;;;;;;;6.70;2.40;;;;;;;;;;5013661;28;20261;-51
2023/01/02 09:04:49;;;;;;;3.00;1.90;;;;;;;;;;5013460;28;20210;-49
2023/01/02 09:07:15;;;;;;;5.33;2.60;;;;;;;;;;4996317;28;20206;-50
2023/01/02 09:09:41;;;;;;;4.47;2.30;;;;;;;;;;4994021;28;20634;-50
2023/01/02 09:12:07;;;;;;;4.50;2.30;;;;;;;;;;4994148;28;20198;-50
2023/01/02 09:14:33;;;;;;;3.63;1.80;;;;;;;;;;5002623;28;20206;-51
2023/01/02 09:16:59;;;;;;;3.90;2.40;;;;;;;;;;4992163;28;20197;-50
2023/01/02 09:19:25;;;;;;;3.63;2.63;;;;;;;;;;5007287;28;20668;-49
2023/01/02 09:21:53;;;;;;;4.43;2.10;;;;;;;;;;5013192;28;20696;-49
2023/01/02 09:24:19;;;;;;;3.70;2.07;;;;;;;;;;5013331;28;20216;-48
2023/01/02 09:26:44;;;;;;;7.43;2.50;;;;;;;;;;5013271;28;20584;-50
2023/01/02 09:29:11;;;;;;;5.50;2.43;;;;;;;;;;5011948;28;20240;-50
2023/01/02 09:31:37;;;;;;;3.47;2.40;;;;;;;;;;5012706;28;20197;-49
2023/01/02 09:34:03;;;;;;;4.80;2.20;;;;;;;;;;5013001;28;20257;-48
2023/01/02 09:36:30;;;;;;;4.93;2.57;;;;;;;;;;5012329;28;20250;-50
2023/01/02 09:38:58;;;;;;;5.30;2.53;;;;;;;;;;5013300;28;20228;-50
2023/01/02 09:41:30;;;;;;;4.60;2.40;;;;;;;;;;5012513;28;20264;-49
2023/01/02 09:43:57;;;;;;;4.80;2.50;;;;;;;;;;5012460;28;20260;-49
2023/01/02 09:46:31;;;;;;;4.03;2.27;;;;;;;;;;5012507;28;20194;-50
2023/01/02 09:48:57;;;;;;;4.83;2.43;;;;;;;;;;5012597;28;20257;-49
2023/01/02 09:51:23;;;;;;;3.47;2.33;;;;;;;;;;5012551;28;20313;-49
2023/01/02 09:53:49;;;;;;;3.13;2.00;;;;;;;;;;5012342;28;20228;-48
2023/01/02 09:56:19;;;;;;;3.10;2.10;;;;;;;;;;5012267;28;20217;-49
2023/01/02 09:58:47;;;;;;;3.63;2.07;;;;;;;;;;5012188;28;20202;-49
2023/01/02 10:01:18;;;;;;;2.90;2.33;;;;;;;;;;5012389;28;20249;-49
2023/01/02 10:03:46;;;;;;;3.80;2.30;;;;;;;;;;5012343;28;20251;-48
2023/01/02 10:06:14;;;;;;;5.30;2.23;;;;;;;;;;5012349;28;20658;-53
2023/01/02 10:08:45;;;;;;;2.80;2.50;;;;;;;;;;5011367;28;20236;-50
2023/01/02 10:11:21;;;;;;;4.20;2.10;;;;;;;;;;5012395;28;20255;-49
2023/01/02 10:13:51;;;;;;;4.23;2.07;;;;;;;;;;5012229;28;20205;-48
2023/01/02 10:16:19;;;;;;;3.67;2.20;;;;;;;;;;5012109;28;20213;-50
2023/01/02 10:18:49;;;;;;;5.17;2.30;;;;;;;;;;5011197;28;20615;-50
2023/01/02 10:21:16;;;;;;;3.27;2.13;;;;;;;;;;5011656;28;20233;-50
2023/01/02 10:23:44;;;;;;;6.17;2.10;;;;;;;;;;5012291;28;20206;-49
2023/01/02 10:26:13;;;;;;;3.67;2.30;;;;;;;;;;5011997;28;20197;-55
2023/01/02 10:28:44;;;;;;;3.37;2.20;;;;;;;;;;5011826;28;20193;-49
2023/01/02 10:31:11;;;;;;;3.83;2.13;;;;;;;;;;5011910;28;20770;-49
2023/01/02 10:33:41;;;;;;;3.53;2.43;;;;;;;;;;5011280;28;20252;-50
2023/01/02 10:36:09;;;;;;;4.13;2.50;;;;;;;;;;5011930;28;20216;-48
2023/01/02 10:38:36;;;;;;;5.17;2.90;;;;;;;;;;5011727;28;20205;-48
2023/01/02 10:41:02;;;;;;;3.63;2.80;;;;;;;;;;5007858;28;20237;-49
2023/01/02 10:43:29;;;;;;;4.43;2.90;;;;;;;;;;5010229;28;20214;-47
2023/01/02 10:45:57;;;;;;;4.13;2.60;;;;;;;;;;5011471;28;20206;-48
2023/01/02 10:48:24;;;;;;;4.70;2.50;;;;;;;;;;5011661;28;20201;-48
2023/01/02 10:50:52;;;;;;;3.80;2.30;;;;;;;;;;5011689;28;20205;-49
2023/01/02 10:53:20;;;;;;;3.70;2.40;;;;;;;;;;5011466;28;20197;-47
2023/01/02 10:55:46;;;;;;;2.93;2.40;;;;;;;;;;4999789;28;20212;-48
2023/01/02 10:58:14;;;;;;;3.13;2.33;;;;;;;;;;4991984;28;20202;-48
2023/01/02 11:00:40;;;;;;;5.00;2.37;;;;;;;;;;4991736;28;20210;-46
2023/01/02 11:03:13;;;;;;;2.80;2.00;;;;;;;;;;4992028;28;20305;-48
2023/01/02 11:05:43;;;;;;;2.37;1.90;;;;;;;;;;4991804;28;20272;-48
2023/01/02 11:08:11;;;;;;;1.80;1.70;;;;;;;;;;4992040;28;20225;-49
2023/01/02 11:10:38;;;;;;;1.70;1.60;;;;;;;;;;4991530;28;20202;-48
2023/01/02 11:13:08;;;;;;;2.07;1.87;;;;;;;;;;4991982;28;20194;-49
2023/01/02 11:15:34;;;;;;;2.13;1.90;;;;;;;;;;4992029;28;20198;-48
2023/01/02 11:18:01;;;;;;;2.77;1.70;;;;;;;;;;5003661;28;20284;-48
2023/01/02 11:20:29;;;;;;;3.13;2.00;;;;;;;;;;5011395;28;20361;-49
2023/01/02 11:22:57;;;;;;;1.77;1.67;;;;;;;;;;5011505;28;20651;-48
2023/01/02 11:25:24;;;;;;;2.40;1.40;;;;;;;;;;5011624;28;20648;-48
2023/01/02 11:27:51;;;;;;;1.83;1.73;;;;;;;;;;5011403;28;20205;-47
2023/01/02 11:30:29;;;;;;;1.60;1.50;;;;;;;;;;5012506;28;20200;-52
2023/01/02 11:33:01;;;;;;;1.40;1.30;;;;;;;;;;5015409;28;20225;-53
2023/01/02 11:35:33;;;;;;;1.60;1.50;;;;;;;;;;5015388;28;20742;-53
2023/01/02 11:38:01;;;;;;;1.20;1.20;;;;;;;;;;5015474;28;20193;-53
2023/01/02 11:40:28;;;;;;;1.60;1.50;;;;;;;;;;5015310;28;20244;-52
2023/01/02 11:45:40;;;;;;;2.30;1.33;;;;;;;;;;5015101;28;20189;-53
2023/01/02 11:48:10;;;;;;;0.90;0.90;;;;;;;;;;5015339;28;20605;-53
2023/01/02 11:50:37;;;;;;;1.00;1.00;;;;;;;;;;5015018;28;20197;-53
2023/01/02 11:53:07;;;;;;;1.20;1.10;;;;;;;;;;5014945;28;20289;-54
2023/01/02 11:55:37;;;;;;;1.17;1.10;;;;;;;;;;5014910;28;20197;-53
2023/01/02 11:58:06;;;;;;;0.97;0.97;;;;;;;;;;5014862;28;20679;-53
2023/01/02 12:00:33;;;;;;;0.87;0.87;;;;;;;;;;5014878;28;20205;-53
2023/01/02 12:03:03;;;;;;;1.47;0.83;;;;;;;;;;5014916;28;20226;-53
2023/01/02 12:05:32;;;;;;;0.60;0.60;;;;;;;;;;5014846;28;20296;-54
2023/01/02 12:08:02;;;;;;;0.70;0.70;;;;;;;;;;5014946;28;20202;-53
2023/01/02 12:10:40;;;;;;;0.60;0.60;;;;;;;;;;5014882;28;20201;-54
2023/01/02 12:13:18;;;;;;;0.80;0.80;;;;;;;;;;5014866;28;20277;-52
2023/01/02 12:15:50;;;;;;;2.03;0.80;;;;;;;;;;5014807;28;20209;-53
2023/01/02 12:18:22;;;;;;;0.60;0.60;;;;;;;;;;5015332;28;20202;-54
2023/01/02 12:20:50;;;;;;;0.60;0.60;;;;;;;;;;5014485;28;20288;-54
2023/01/02 12:23:29;;;;;;;0.70;0.70;;;;;;;;;;5011366;28;20229;-55
2023/01/02 12:26:05;;;;;;;0.90;0.90;;;;;;;;;;5014217;28;20202;-54
2023/01/02 12:28:39;;;;;;;0.93;0.90;;;;;;;;;;5014378;28;20239;-54
2023/01/02 12:31:14;;;;;;;0.80;0.80;;;;;;;;;;5014510;28;20216;-54
2023/01/02 12:33:45;;;;;;;0.50;0.50;;;;;;;;;;5014199;28;20718;-54
2023/01/02 12:36:24;;;;;;;2.10;0.87;;;;;;;;;;5014320;28;20610;-53
2023/01/02 12:39:00;;;;;;;0.77;0.77;;;;;;;;;;5014337;28;20676;-53
2023/01/02 12:41:28;;;;;;;0.73;0.73;;;;;;;;;;5013689;28;20237;-54
2023/01/02 12:44:01;;;;;;;0.80;0.80;;;;;;;;;;5013752;28;20675;-54
2023/01/02 12:46:35;;;;;;;0.87;0.87;;;;;;;;;;5014386;28;20197;-53
2023/01/02 12:49:14;;;;;;;0.90;0.90;;;;;;;;;;5014265;28;20198;-52
2023/01/02 12:51:46;;;;;;;1.53;0.80;;;;;;;;;;5014183;28;20289;-54
2023/01/02 12:54:23;;;;;;;0.60;0.60;;;;;;;;;;5014210;28;20197;-54
2023/01/02 12:56:53;;;;;;;0.80;0.80;;;;;;;;;;5013673;28;20209;-54
2023/01/02 12:59:33;;;;;;;0.90;0.90;;;;;;;;;;5013779;28;20193;-54
2023/01/02 13:02:02;;;;;;;0.80;0.80;;;;;;;;;;5013845;28;20324;-55
2023/01/02 13:04:31;;;;;;;0.70;0.70;;;;;;;;;;5013751;28;20203;-54
2023/01/02 13:06:58;;;;;;;1.60;1.20;;;;;;;;;;5013768;28;20202;-55
2023/01/02 13:09:28;;;;;;;1.70;1.00;;;;;;;;;;5013843;28;20635;-54
2023/01/02 13:12:00;;;;;;;0.93;0.90;;;;;;;;;;5013849;28;20303;-55
2023/01/02 13:14:29;;;;;;;1.13;1.10;;;;;;;;;;5013603;28;20194;-55
2023/01/02 13:17:01;;;;;;;1.30;1.07;;;;;;;;;;5013445;28;20255;-55
2023/01/02 13:19:32;;;;;;;2.37;0.90;;;;;;;;;;5013919;28;20204;-55
2023/01/02 13:22:01;;;;;;;1.20;1.10;;;;;;;;;;5013598;28;20221;-54
2023/01/02 13:24:30;;;;;;;1.10;1.00;;;;;;;;;;5013617;28;20204;-54
2023/01/02 13:26:57;;;;;;;1.17;1.07;;;;;;;;;;5006794;28;20198;-54
2023/01/02 13:29:27;;;;;;;1.03;1.03;;;;;;;;;;4993809;28;20252;-54
2023/01/02 13:31:54;;;;;;;0.70;0.70;;;;;;;;;;4993667;28;20603;-53
2023/01/02 13:34:21;;;;;;;0.90;0.90;;;;;;;;;;4993766;28;20224;-54
2023/01/02 13:36:48;;;;;;;1.17;1.07;;;;;;;;;;4993534;28;20211;-55
2023/01/02 13:39:16;;;;;;;1.00;1.00;;;;;;;;;;4993741;28;20205;-54
2023/01/02 13:44:33;;;;;;;1.27;1.17;;;;;;;;;;4993963;28;20272;-54
2023/01/02 13:47:06;;;;;;;1.00;1.00;;;;;;;;;;4993385;28;20198;-54
2023/01/02 13:49:33;;;;;;;1.37;1.03;;;;;;;;;;4993464;28;20864;-54
2023/01/02 13:52:00;;;;;;;1.33;1.20;;;;;;;;;;4993376;28;20594;-55
2023/01/02 13:54:34;;;;;;;3.33;1.00;;;;;;;;;;4993422;28;20241;-53
2023/01/02 13:57:30;;;;;;;1.10;1.10;;;;;;;;;;4993171;28;20324;-54
2023/01/02 13:59:57;;;;;;;1.50;1.40;;;;;;;;;;4993445;28;20228;-54
2023/01/02 14:02:23;;;;;;;1.30;1.20;;;;;;;;;;4993143;28;20234;-54
2023/01/02 14:04:49;;;;;;;1.20;1.10;;;;;;;;;;4993021;28;20256;-53
2023/01/02 14:07:36;;;;;;;1.40;1.30;;;;;;;;;;4993339;28;20201;-53
2023/01/02 14:10:07;;;;;;;1.20;1.20;;;;;;;;;;4993824;28;20612;-53
2023/01/02 14:12:40;;;;;;;1.40;1.30;;;;;;;;;;4993075;28;20196;-53
2023/01/02 14:15:14;;;;;;;1.40;1.30;;;;;;;;;;4992893;28;20234;-54
2023/01/02 14:17:45;;;;;;;1.30;1.30;;;;;;;;;;4992756;28;20195;-53
2023/01/02 14:20:18;;;;;;;1.47;1.37;;;;;;;;;;4993030;28;20194;-53
2023/01/02 14:22:46;;;;;;;1.60;1.50;;;;;;;;;;4992765;28;20234;-54
2023/01/02 14:25:12;;;;;;;1.20;1.20;;;;;;;;;;4992836;28;20269;-53
2023/01/02 14:27:39;;;;;;;2.57;1.67;;;;;;;;;;4992869;28;20207;-53
2023/01/02 14:30:08;;;;;;;1.67;1.57;;;;;;;;;;4992627;28;20261;-53
2023/01/02 14:32:36;;;;;;;1.60;1.50;;;;;;;;;;4992920;28;20202;-53
2023/01/02 14:35:03;;;;;;;2.27;1.73;;;;;;;;;;4992667;28;20222;-53
2023/01/02 14:37:35;;;;;;;1.83;1.60;;;;;;;;;;4992633;28;20214;-53
2023/01/02 14:40:25;;;;;;;1.77;1.67;;;;;;;;;;4992359;28;20234;-53
2023/01/02 14:45:41;;;;;;;1.57;1.47;;;;;;;;;;4990371;28;20201;-53
2023/01/02 14:48:09;;;;;;;1.70;1.47;;;;;;;;;;4992031;28;20205;-53
2023/01/02 14:50:36;;;;;;;1.67;1.50;;;;;;;;;;4992058;28;20242;-53
2023/01/02 14:53:05;;;;;;;2.80;1.50;;;;;;;;;;4991847;28;20204;-53
2023/01/02 14:55:33;;;;;;;1.40;1.30;;;;;;;;;;4991851;28;20565;-54
2023/01/02 14:58:00;;;;;;;1.53;1.43;;;;;;;;;;4991638;28;20575;-53
2023/01/02 15:00:29;;;;;;;1.93;1.50;;;;;;;;;;4989989;28;20668;-54